Airport ID:KCCB
Update Time (UTC):09/03/2021 01:30
Wind Speed (Knots):10
Wind Direction (Magnetic):260
Temperature (°C):13.9
Dew Point (°C):3.8
Humidity (%):50.5
Altimeter (inHg):30.14
Density Altitude (Feet):
Visibility (Miles):10
Clouds (Hundreds of feet):BKN040 BKN050 OVC065
Present Weather:
METAR:METAR KCCB 090125Z AUTO 26012KT 10SM BKN039 OVC050 14/04 A3014 RMK AO2

The data displayed is for advisory purposes only and is not to be used for flight planning or operations.